Time;durP1;ratioP1;P1;durP2;ratioP2;P2;SDS_P1;SDS_P2;PMS_P1;PMS_P2;Temp;Humidity;BMP_temperature;BMP_pressure;BME280_temperature;BME280_humidity;BME280_pressure;Samples;Min_cycle;Max_cycle;Signal;HPM_P1;HPM_P2
2022/06/21 00:00:05;;;;;;;4.45;3.85;;;;;;;;;;2065309;28;20181;-55
2022/06/21 00:01:10;;;;;;;6.10;3.97;;;;;;;;;;2065155;28;20185;-58
2022/06/21 00:02:14;;;;;;;4.88;3.67;;;;;;;;;;2065185;28;20165;-56
2022/06/21 00:03:16;;;;;;;4.65;3.58;;;;;;;;;;2065063;28;20185;-55
2022/06/21 00:04:17;;;;;;;9.18;4.45;;;;;;;;;;2064628;28;20193;-58
2022/06/21 00:05:20;;;;;;;6.88;4.25;;;;;;;;;;2065043;28;20200;-56
2022/06/21 00:06:22;;;;;;;8.02;4.70;;;;;;;;;;2065274;28;20201;-54
2022/06/21 00:07:24;;;;;;;7.38;4.53;;;;;;;;;;2065043;28;20158;-55
2022/06/21 00:08:27;;;;;;;4.55;4.10;;;;;;;;;;2065420;28;20180;-56
2022/06/21 00:09:27;;;;;;;7.55;3.75;;;;;;;;;;2065140;28;20162;-55
2022/06/21 00:10:27;;;;;;;6.65;4.15;;;;;;;;;;2065278;28;20182;-57
2022/06/21 00:11:32;;;;;;;5.03;3.75;;;;;;;;;;2065057;28;20253;-56
2022/06/21 00:12:32;;;;;;;7.45;4.28;;;;;;;;;;2065176;28;20170;-57
2022/06/21 00:13:33;;;;;;;8.35;4.22;;;;;;;;;;2065011;28;20184;-58
2022/06/21 00:14:34;;;;;;;5.15;3.92;;;;;;;;;;2064506;28;20219;-56
2022/06/21 00:15:34;;;;;;;10.20;4.30;;;;;;;;;;2065145;28;20193;-57
2022/06/21 00:16:35;;;;;;;6.25;3.80;;;;;;;;;;2065388;28;20177;-55
2022/06/21 00:17:35;;;;;;;6.53;3.70;;;;;;;;;;2065155;28;20244;-55
2022/06/21 00:18:37;;;;;;;6.65;3.92;;;;;;;;;;2064726;28;20178;-56
2022/06/21 00:19:37;;;;;;;6.38;3.80;;;;;;;;;;2064556;28;20188;-57
2022/06/21 00:20:37;;;;;;;6.75;4.00;;;;;;;;;;2065282;28;20178;-56
2022/06/21 00:21:39;;;;;;;6.32;4.30;;;;;;;;;;2065386;28;20170;-54
2022/06/21 00:22:39;;;;;;;5.43;3.67;;;;;;;;;;2064709;28;20197;-54
2022/06/21 00:23:39;;;;;;;7.25;3.90;;;;;;;;;;2064581;28;20235;-56
2022/06/21 00:24:40;;;;;;;8.70;4.53;;;;;;;;;;2064130;28;20172;-55
2022/06/21 00:25:42;;;;;;;5.85;3.85;;;;;;;;;;2064778;28;20213;-56
2022/06/21 00:26:42;;;;;;;4.20;3.80;;;;;;;;;;2065114;28;20220;-55
2022/06/21 00:27:43;;;;;;;5.82;4.32;;;;;;;;;;2065031;28;20243;-54
2022/06/21 00:28:43;;;;;;;6.90;3.65;;;;;;;;;;2066097;28;20519;-56
2022/06/21 00:29:44;;;;;;;9.77;4.85;;;;;;;;;;2066686;28;20216;-56
2022/06/21 00:30:46;;;;;;;6.13;4.18;;;;;;;;;;2066830;28;20215;-57
2022/06/21 00:31:47;;;;;;;10.82;4.38;;;;;;;;;;2066676;28;20181;-58
2022/06/21 00:32:49;;;;;;;10.63;4.70;;;;;;;;;;2066576;28;20181;-55
2022/06/21 00:33:50;;;;;;;8.10;4.38;;;;;;;;;;2066594;28;20188;-56
2022/06/21 00:34:50;;;;;;;8.38;4.40;;;;;;;;;;2065912;28;20177;-57
2022/06/21 00:35:52;;;;;;;6.43;3.90;;;;;;;;;;2075743;23;20408;-50
2022/06/21 00:36:53;;;;;;;6.18;3.70;;;;;;;;;;2066824;28;20634;-58
2022/06/21 00:37:54;;;;;;;6.18;3.95;;;;;;;;;;2066036;28;20200;-54
2022/06/21 00:38:55;;;;;;;5.03;4.30;;;;;;;;;;2066830;28;20245;-55
2022/06/21 00:39:55;;;;;;;7.10;3.95;;;;;;;;;;2066667;28;20182;-54
2022/06/21 00:40:57;;;;;;;6.63;4.28;;;;;;;;;;2067542;28;20556;-57
2022/06/21 00:42:02;;;;;;;7.30;4.88;;;;;;;;;;2066957;28;20169;-52
2022/06/21 00:43:03;;;;;;;6.72;4.45;;;;;;;;;;2067264;28;20185;-53
2022/06/21 00:44:05;;;;;;;7.10;4.38;;;;;;;;;;2065834;28;20201;-53
2022/06/21 00:45:20;;;;;;;7.47;4.38;;;;;;;;;;2066517;28;20191;-54
2022/06/21 00:46:29;;;;;;;6.32;4.53;;;;;;;;;;2066009;28;20207;-54
2022/06/21 00:47:50;;;;;;;9.57;4.68;;;;;;;;;;2067287;28;20650;-53
2022/06/21 00:48:51;;;;;;;5.50;4.20;;;;;;;;;;2067176;28;20261;-55
2022/06/21 00:49:54;;;;;;;5.97;4.35;;;;;;;;;;2067033;28;20304;-57
2022/06/21 00:50:57;;;;;;;12.00;4.68;;;;;;;;;;2065410;28;20174;-56
2022/06/21 00:52:06;;;;;;;5.57;4.15;;;;;;;;;;2059174;28;20623;-54
2022/06/21 00:53:25;;;;;;;8.75;4.95;;;;;;;;;;2074033;28;20246;-53
2022/06/21 00:54:42;;;;;;;8.85;4.30;;;;;;;;;;2069947;28;20168;-56
2022/06/21 00:56:00;;;;;;;11.35;5.10;;;;;;;;;;2066911;28;20594;-52
2022/06/21 00:57:04;;;;;;;9.82;4.72;;;;;;;;;;2058844;28;20174;-57
2022/06/21 00:58:05;;;;;;;6.07;4.88;;;;;;;;;;2059839;28;20174;-54
2022/06/21 00:59:15;;;;;;;4.70;4.28;;;;;;;;;;2058854;28;20515;-54
2022/06/21 01:00:25;;;;;;;6.00;4.45;;;;;;;;;;2059215;28;20265;-56
2022/06/21 01:01:27;;;;;;;7.72;4.65;;;;;;;;;;2065569;28;20176;-51
2022/06/21 01:02:32;;;;;;;5.05;4.60;;;;;;;;;;2066519;28;20169;-55
2022/06/21 01:03:38;;;;;;;9.00;4.18;;;;;;;;;;2066540;28;20175;-53
2022/06/21 01:04:42;;;;;;;9.80;4.35;;;;;;;;;;2065790;28;20323;-54
2022/06/21 01:05:43;;;;;;;5.65;4.40;;;;;;;;;;2065723;28;20176;-56
2022/06/21 01:06:46;;;;;;;6.97;4.50;;;;;;;;;;2066071;28;20251;-53
2022/06/21 01:07:46;;;;;;;7.15;4.25;;;;;;;;;;2066569;28;20231;-54
2022/06/21 01:08:55;;;;;;;6.85;4.28;;;;;;;;;;2066349;28;20178;-52
2022/06/21 01:10:01;;;;;;;8.98;5.10;;;;;;;;;;2066558;28;20165;-56
2022/06/21 01:11:05;;;;;;;5.53;4.53;;;;;;;;;;2064250;28;20201;-54
2022/06/21 01:12:31;;;;;;;7.97;4.38;;;;;;;;;;2062325;28;20228;-52
2022/06/21 01:13:35;;;;;;;5.22;4.45;;;;;;;;;;2063429;28;20209;-56
2022/06/21 01:14:37;;;;;;;4.97;4.60;;;;;;;;;;2065110;28;20522;-54
2022/06/21 01:15:43;;;;;;;6.90;4.40;;;;;;;;;;2065552;28;20173;-52
2022/06/21 01:16:44;;;;;;;6.00;4.45;;;;;;;;;;2060469;28;20254;-53
2022/06/21 01:17:46;;;;;;;8.73;4.88;;;;;;;;;;2058346;28;20175;-50
2022/06/21 01:18:46;;;;;;;5.72;4.80;;;;;;;;;;2057820;28;20559;-54
2022/06/21 01:19:48;;;;;;;5.13;4.45;;;;;;;;;;2057596;28;20217;-53
2022/06/21 01:20:50;;;;;;;5.70;4.47;;;;;;;;;;2058934;28;20536;-52
2022/06/21 01:21:52;;;;;;;7.03;4.53;;;;;;;;;;2058457;28;20209;-51
2022/06/21 01:23:11;;;;;;;5.68;4.55;;;;;;;;;;2058431;28;20592;-54
2022/06/21 01:24:16;;;;;;;8.82;5.32;;;;;;;;;;2057267;28;20257;-57
2022/06/21 01:25:24;;;;;;;5.93;4.82;;;;;;;;;;2059541;28;20189;-54
2022/06/21 01:26:31;;;;;;;8.60;4.90;;;;;;;;;;2065337;28;20260;-50
2022/06/21 01:27:31;;;;;;;5.97;4.63;;;;;;;;;;2066447;28;20169;-51
2022/06/21 01:28:32;;;;;;;6.95;4.43;;;;;;;;;;2066244;28;20169;-56
2022/06/21 01:29:33;;;;;;;10.27;4.75;;;;;;;;;;2066522;28;20192;-58
2022/06/21 01:30:34;;;;;;;7.22;4.78;;;;;;;;;;2066232;28;20182;-55
2022/06/21 01:31:35;;;;;;;12.30;4.95;;;;;;;;;;2061795;28;20185;-56
2022/06/21 01:32:35;;;;;;;5.57;4.63;;;;;;;;;;2060087;28;20166;-54
2022/06/21 01:33:38;;;;;;;7.00;5.20;;;;;;;;;;2073803;28;20536;-53
2022/06/21 01:34:39;;;;;;;7.38;4.60;;;;;;;;;;2073298;28;20173;-56
2022/06/21 01:35:41;;;;;;;8.70;5.55;;;;;;;;;;2073394;28;20559;-52
2022/06/21 01:36:42;;;;;;;6.75;4.72;;;;;;;;;;2063090;28;20245;-52
2022/06/21 01:37:42;;;;;;;9.32;4.80;;;;;;;;;;2058223;28;20170;-52
2022/06/21 01:38:49;;;;;;;9.75;4.85;;;;;;;;;;2058083;28;20178;-51
2022/06/21 01:39:49;;;;;;;5.25;4.40;;;;;;;;;;2057888;28;20224;-50
2022/06/21 01:40:52;;;;;;;6.43;4.50;;;;;;;;;;2065725;28;20212;-53
2022/06/21 01:41:57;;;;;;;10.10;4.95;;;;;;;;;;2059916;28;20269;-54
2022/06/21 01:43:00;;;;;;;7.38;4.45;;;;;;;;;;2057937;28;20589;-52
2022/06/21 01:44:03;;;;;;;6.00;4.95;;;;;;;;;;2057289;28;20310;-54
2022/06/21 01:45:06;;;;;;;12.02;5.05;;;;;;;;;;2065743;28;20165;-53
2022/06/21 01:46:09;;;;;;;8.95;4.97;;;;;;;;;;2062229;28;20630;-54
2022/06/21 01:47:12;;;;;;;11.90;5.22;;;;;;;;;;2065918;28;20223;-52
2022/06/21 01:48:12;;;;;;;15.10;5.22;;;;;;;;;;2065458;28;20174;-51
2022/06/21 01:49:15;;;;;;;8.45;5.43;;;;;;;;;;2065292;28;20203;-54
2022/06/21 01:50:15;;;;;;;9.05;5.63;;;;;;;;;;2066051;28;20166;-55
2022/06/21 01:51:19;;;;;;;6.78;4.85;;;;;;;;;;2062996;28;20682;-55
2022/06/21 01:52:24;;;;;;;7.20;5.45;;;;;;;;;;2065630;28;20184;-55
2022/06/21 01:53:26;;;;;;;5.68;5.10;;;;;;;;;;2066131;28;20158;-56
2022/06/21 01:54:28;;;;;;;6.25;5.00;;;;;;;;;;2065101;28;20766;-59
2022/06/21 01:55:34;;;;;;;9.00;5.22;;;;;;;;;;2065341;28;20259;-50
2022/06/21 01:56:37;;;;;;;8.25;4.88;;;;;;;;;;2065428;28;20567;-56
2022/06/21 01:57:38;;;;;;;8.00;5.93;;;;;;;;;;2065903;28;20581;-56
2022/06/21 01:58:41;;;;;;;11.57;5.57;;;;;;;;;;2066207;28;20173;-52
2022/06/21 01:59:43;;;;;;;7.68;5.13;;;;;;;;;;2065886;28;20236;-53
2022/06/21 02:00:47;;;;;;;7.78;5.55;;;;;;;;;;2065890;28;20165;-52
2022/06/21 02:01:53;;;;;;;7.50;5.30;;;;;;;;;;2060556;28;20552;-54
2022/06/21 02:02:57;;;;;;;10.73;5.32;;;;;;;;;;2058092;28;20201;-55
2022/06/21 02:03:59;;;;;;;7.93;6.10;;;;;;;;;;2057570;28;20200;-52
2022/06/21 02:05:03;;;;;;;6.22;5.45;;;;;;;;;;2057936;28;20205;-55
2022/06/21 02:06:14;;;;;;;10.45;6.43;;;;;;;;;;2057843;28;20210;-52
2022/06/21 02:07:18;;;;;;;6.38;5.88;;;;;;;;;;2058071;28;20159;-53
2022/06/21 02:08:21;;;;;;;8.98;6.15;;;;;;;;;;2057904;28;20172;-53
2022/06/21 02:09:23;;;;;;;7.50;6.28;;;;;;;;;;2058038;28;20174;-56
2022/06/21 02:10:32;;;;;;;8.43;5.97;;;;;;;;;;2057398;28;20249;-50
2022/06/21 02:11:40;;;;;;;7.88;5.63;;;;;;;;;;2060232;28;20166;-52
2022/06/21 02:12:52;;;;;;;10.93;6.40;;;;;;;;;;2066344;28;20158;-51
2022/06/21 02:15:39;;;;;;;8.43;6.05;;;;;;;;;;2066455;28;20158;-56
2022/06/21 02:16:42;;;;;;;12.13;6.85;;;;;;;;;;2064989;28;20188;-55
2022/06/21 02:17:44;;;;;;;8.43;5.95;;;;;;;;;;2065875;28;20173;-52
2022/06/21 02:18:50;;;;;;;9.73;6.25;;;;;;;;;;2065443;28;20173;-58
2022/06/21 02:20:09;;;;;;;9.63;6.93;;;;;;;;;;2065899;28;20635;-60
2022/06/21 02:21:12;;;;;;;8.43;6.22;;;;;;;;;;2063880;28;20173;-52
2022/06/21 02:22:14;;;;;;;7.40;5.88;;;;;;;;;;2065522;28;20666;-54
2022/06/21 02:23:16;;;;;;;6.82;6.15;;;;;;;;;;2065815;28;20177;-53
2022/06/21 02:24:17;;;;;;;8.35;6.22;;;;;;;;;;2065030;28;20184;-52
2022/06/21 02:25:18;;;;;;;11.30;6.47;;;;;;;;;;2066249;28;20173;-53
2022/06/21 02:26:19;;;;;;;7.93;5.68;;;;;;;;;;2064183;28;20197;-56
2022/06/21 02:27:23;;;;;;;8.38;6.05;;;;;;;;;;2065310;28;20169;-52
2022/06/21 02:28:25;;;;;;;10.15;5.72;;;;;;;;;;2065735;28;20534;-55
2022/06/21 02:29:26;;;;;;;8.73;6.47;;;;;;;;;;2063512;28;20165;-56
2022/06/21 02:30:26;;;;;;;10.93;6.07;;;;;;;;;;2065885;28;20165;-53
2022/06/21 02:31:27;;;;;;;9.95;5.85;;;;;;;;;;2063861;28;20189;-55
2022/06/21 02:32:29;;;;;;;8.45;6.18;;;;;;;;;;2059002;28;20158;-54
2022/06/21 02:33:31;;;;;;;8.10;5.95;;;;;;;;;;2071264;28;20157;-56
2022/06/21 02:34:35;;;;;;;11.38;6.05;;;;;;;;;;2065636;28;20182;-58
2022/06/21 02:35:55;;;;;;;12.05;5.97;;;;;;;;;;2069679;28;20161;-54
2022/06/21 02:36:57;;;;;;;8.45;6.13;;;;;;;;;;2068806;28;20576;-54
2022/06/21 02:37:59;;;;;;;8.65;6.00;;;;;;;;;;2069070;28;20186;-54
2022/06/21 02:39:04;;;;;;;10.50;6.15;;;;;;;;;;2069337;28;20191;-54
2022/06/21 02:40:06;;;;;;;9.50;6.60;;;;;;;;;;2069281;28;20194;-53
2022/06/21 02:41:11;;;;;;;13.02;6.60;;;;;;;;;;2068203;28;20544;-55
2022/06/21 02:42:17;;;;;;;10.10;5.90;;;;;;;;;;2061413;28;20190;-51
2022/06/21 02:43:22;;;;;;;10.13;6.20;;;;;;;;;;2061272;28;20224;-51
2022/06/21 02:44:28;;;;;;;9.18;6.35;;;;;;;;;;2064498;28;20169;-54
2022/06/21 02:45:28;;;;;;;8.32;6.07;;;;;;;;;;2062173;28;20202;-53
2022/06/21 02:46:31;;;;;;;7.78;6.53;;;;;;;;;;2061215;28;20573;-51
2022/06/21 02:47:35;;;;;;;10.90;6.50;;;;;;;;;;2061657;28;20208;-50
2022/06/21 02:48:40;;;;;;;8.73;5.93;;;;;;;;;;2061057;28;20236;-51
2022/06/21 02:49:47;;;;;;;10.10;6.38;;;;;;;;;;2061458;28;20217;-58
2022/06/21 02:50:53;;;;;;;8.48;6.10;;;;;;;;;;2069319;28;20221;-50
2022/06/21 02:51:58;;;;;;;11.02;6.43;;;;;;;;;;2060362;28;20181;-53
2022/06/21 02:52:59;;;;;;;6.75;6.25;;;;;;;;;;2064199;28;20186;-57
2022/06/21 02:54:07;;;;;;;7.88;6.10;;;;;;;;;;2067488;28;20166;-55
2022/06/21 02:55:10;;;;;;;9.65;7.00;;;;;;;;;;2068063;28;20173;-54
2022/06/21 02:56:22;;;;;;;7.75;5.75;;;;;;;;;;2068628;28;20213;-51
2022/06/21 02:57:22;;;;;;;6.35;5.75;;;;;;;;;;2068843;28;20273;-57
2022/06/21 02:58:29;;;;;;;7.35;5.68;;;;;;;;;;2064834;28;20186;-58
2022/06/21 02:59:31;;;;;;;7.47;5.50;;;;;;;;;;2065894;28;20176;-52
2022/06/21 03:00:31;;;;;;;14.70;6.18;;;;;;;;;;2063952;28;20245;-53
2022/06/21 03:01:39;;;;;;;8.10;6.70;;;;;;;;;;2061208;28;20162;-56
2022/06/21 03:02:39;;;;;;;7.93;5.97;;;;;;;;;;2062882;28;20265;-55
2022/06/21 03:03:40;;;;;;;7.18;6.18;;;;;;;;;;2061062;28;20174;-51
2022/06/21 03:04:43;;;;;;;7.47;6.10;;;;;;;;;;2065634;28;20169;-52
2022/06/21 03:05:45;;;;;;;9.65;5.95;;;;;;;;;;2070178;28;20217;-54
2022/06/21 03:06:45;;;;;;;6.40;5.82;;;;;;;;;;2071032;28;20161;-57
2022/06/21 03:07:48;;;;;;;7.28;6.25;;;;;;;;;;2070189;28;20184;-53
2022/06/21 03:08:54;;;;;;;9.07;5.60;;;;;;;;;;2069184;28;20186;-51
2022/06/21 03:09:54;;;;;;;10.90;6.32;;;;;;;;;;2069427;28;20192;-51
2022/06/21 03:10:55;;;;;;;6.60;5.85;;;;;;;;;;2070278;28;20220;-51
2022/06/21 03:12:00;;;;;;;9.07;6.28;;;;;;;;;;2070257;28;20189;-55
2022/06/21 03:13:03;;;;;;;6.55;5.95;;;;;;;;;;2069144;28;20214;-54
2022/06/21 03:14:05;;;;;;;6.43;5.80;;;;;;;;;;2067013;28;20196;-54
2022/06/21 03:15:08;;;;;;;7.60;6.10;;;;;;;;;;2061238;28;20201;-53
2022/06/21 03:16:12;;;;;;;6.93;6.20;;;;;;;;;;2061208;28;20205;-51
2022/06/21 03:17:14;;;;;;;12.93;6.95;;;;;;;;;;2060819;28;20253;-50
2022/06/21 03:18:19;;;;;;;8.95;6.65;;;;;;;;;;2062271;28;20635;-54
2022/06/21 03:19:23;;;;;;;11.30;6.32;;;;;;;;;;2064366;28;20670;-52
2022/06/21 03:20:23;;;;;;;8.32;6.07;;;;;;;;;;2061070;28;20209;-56
2022/06/21 03:21:26;;;;;;;8.85;6.40;;;;;;;;;;2061000;28;20178;-52
2022/06/21 03:22:29;;;;;;;6.72;5.53;;;;;;;;;;2076505;28;20165;-53
2022/06/21 03:23:30;;;;;;;12.95;7.00;;;;;;;;;;2076019;28;20185;-51
2022/06/21 03:24:31;;;;;;;10.25;6.50;;;;;;;;;;2063932;28;20177;-51
2022/06/21 03:25:46;;;;;;;11.10;6.28;;;;;;;;;;2068593;28;20253;-53
2022/06/21 03:26:50;;;;;;;9.75;6.88;;;;;;;;;;2068944;28;20189;-54
2022/06/21 03:27:58;;;;;;;11.15;6.80;;;;;;;;;;2069470;28;20162;-53
2022/06/21 03:28:58;;;;;;;8.80;6.60;;;;;;;;;;2069807;28;20169;-55
2022/06/21 03:29:59;;;;;;;9.07;6.40;;;;;;;;;;2068098;28;20234;-54
2022/06/21 03:31:14;;;;;;;7.47;6.70;;;;;;;;;;2060247;28;20187;-51
2022/06/21 03:32:14;;;;;;;11.32;6.90;;;;;;;;;;2076520;28;20222;-54
2022/06/21 03:33:15;;;;;;;11.02;6.32;;;;;;;;;;2079312;28;20168;-55
2022/06/21 03:34:17;;;;;;;10.40;7.40;;;;;;;;;;2067652;28;20542;-52
2022/06/21 03:35:18;;;;;;;8.27;6.47;;;;;;;;;;2069387;28;20221;-54
2022/06/21 03:36:22;;;;;;;7.70;6.85;;;;;;;;;;2068764;28;20244;-51
2022/06/21 03:37:22;;;;;;;9.52;7.13;;;;;;;;;;2069502;28;20256;-50
2022/06/21 03:38:23;;;;;;;10.73;7.53;;;;;;;;;;2068676;28;20172;-52
2022/06/21 03:41:42;;;;;;;12.45;7.80;;;;;;;;;;2069311;28;20178;-55
2022/06/21 03:42:05;;;;;;;8.23;7.45;;;;;;;;;;2068795;28;20216;-52
2022/06/21 03:43:14;;;;;;;10.90;8.15;;;;;;;;;;2069472;28;20242;-53
2022/06/21 03:44:18;;;;;;;9.40;8.07;;;;;;;;;;2066843;28;20201;-52
2022/06/21 03:45:24;;;;;;;10.05;7.70;;;;;;;;;;2064197;28;20193;-51
2022/06/21 03:46:26;;;;;;;13.50;8.18;;;;;;;;;;2061379;28;20694;-53
2022/06/21 03:47:27;;;;;;;10.75;7.78;;;;;;;;;;2061345;28;20171;-52
2022/06/21 03:48:37;;;;;;;11.25;7.35;;;;;;;;;;2061327;28;20166;-54
2022/06/21 03:49:37;;;;;;;9.48;7.28;;;;;;;;;;2065884;28;20190;-50
2022/06/21 03:50:42;;;;;;;11.35;7.78;;;;;;;;;;2068310;28;20553;-53
2022/06/21 03:51:45;;;;;;;9.27;7.93;;;;;;;;;;2068704;28;20158;-59
2022/06/21 03:52:52;;;;;;;9.05;7.35;;;;;;;;;;2068321;28;20209;-51
2022/06/21 03:53:56;;;;;;;9.63;7.70;;;;;;;;;;2068945;28;20662;-53
2022/06/21 03:54:57;;;;;;;9.52;7.55;;;;;;;;;;2060930;28;20182;-53
2022/06/21 03:55:57;;;;;;;15.35;8.10;;;;;;;;;;2060454;28;20192;-50
2022/06/21 03:57:03;;;;;;;11.80;9.05;;;;;;;;;;2060581;28;20198;-53
2022/06/21 03:58:23;;;;;;;8.35;7.57;;;;;;;;;;2061019;28;20182;-53
2022/06/21 03:59:43;;;;;;;11.98;8.40;;;;;;;;;;2060778;28;20581;-54
2022/06/21 04:00:46;;;;;;;12.38;7.75;;;;;;;;;;2060253;28;20318;-52
2022/06/21 04:02:01;;;;;;;9.48;7.50;;;;;;;;;;2060353;28;20627;-56
2022/06/21 04:03:06;;;;;;;10.90;7.65;;;;;;;;;;2060025;28;20240;-53
2022/06/21 04:04:25;;;;;;;11.63;7.47;;;;;;;;;;2059855;28;20158;-52
2022/06/21 04:05:33;;;;;;;11.32;7.97;;;;;;;;;;2067762;28;20166;-53
2022/06/21 04:06:37;;;;;;;14.75;7.32;;;;;;;;;;2068361;28;20205;-51
2022/06/21 04:07:44;;;;;;;9.23;7.43;;;;;;;;;;2068246;28;20158;-55
2022/06/21 04:08:51;;;;;;;8.23;7.35;;;;;;;;;;2067294;28;20224;-53
2022/06/21 04:10:10;;;;;;;8.90;7.47;;;;;;;;;;2067918;28;20169;-51
2022/06/21 04:11:16;;;;;;;10.65;7.78;;;;;;;;;;2068155;28;20184;-51
2022/06/21 04:12:37;;;;;;;9.90;8.05;;;;;;;;;;2068227;28;20154;-52
2022/06/21 04:13:47;;;;;;;8.55;7.72;;;;;;;;;;2067903;28;20192;-52
2022/06/21 04:14:52;;;;;;;9.48;8.45;;;;;;;;;;2062013;28;20179;-53
2022/06/21 04:15:57;;;;;;;10.88;8.32;;;;;;;;;;2059748;28;20606;-53
2022/06/21 04:17:00;;;;;;;14.18;8.45;;;;;;;;;;2060326;28;20201;-58
2022/06/21 04:18:06;;;;;;;12.90;8.57;;;;;;;;;;2059911;28;20223;-54
2022/06/21 04:19:10;;;;;;;13.30;8.45;;;;;;;;;;2059351;28;20210;-52
2022/06/21 04:20:24;;;;;;;15.27;9.10;;;;;;;;;;2060199;28;20166;-52
2022/06/21 04:21:29;;;;;;;9.00;7.70;;;;;;;;;;2059344;28;20253;-51
2022/06/21 04:22:37;;;;;;;13.07;8.07;;;;;;;;;;2059716;28;20185;-58
2022/06/21 04:23:46;;;;;;;12.25;8.10;;;;;;;;;;2059210;28;20189;-57
2022/06/21 04:24:49;;;;;;;11.43;7.90;;;;;;;;;;2063826;28;20189;-53
2022/06/21 04:25:56;;;;;;;10.25;7.75;;;;;;;;;;2067000;28;20169;-54
2022/06/21 04:27:19;;;;;;;9.80;8.07;;;;;;;;;;2067459;28;20720;-52
2022/06/21 04:28:25;;;;;;;16.17;8.27;;;;;;;;;;2067560;28;20166;-53
2022/06/21 04:29:44;;;;;;;15.48;7.57;;;;;;;;;;2064975;28;20174;-55
2022/06/21 04:30:53;;;;;;;9.38;7.68;;;;;;;;;;2063785;28;20583;-51
2022/06/21 04:32:03;;;;;;;9.07;8.13;;;;;;;;;;2067314;28;20619;-52
2022/06/21 04:33:19;;;;;;;11.32;7.78;;;;;;;;;;2066229;28;20177;-54
2022/06/21 04:34:21;;;;;;;12.68;7.60;;;;;;;;;;2062962;28;20165;-51
2022/06/21 04:35:24;;;;;;;14.18;7.82;;;;;;;;;;2059455;28;20211;-54
2022/06/21 04:36:36;;;;;;;10.85;8.02;;;;;;;;;;2059621;28;20578;-53
2022/06/21 04:37:46;;;;;;;11.65;7.75;;;;;;;;;;2059587;28;20178;-54
2022/06/21 04:38:53;;;;;;;12.95;7.15;;;;;;;;;;2059513;28;20174;-55
2022/06/21 04:39:57;;;;;;;10.98;7.03;;;;;;;;;;2059725;28;20167;-57
2022/06/21 04:41:01;;;;;;;13.38;8.02;;;;;;;;;;2066281;28;20193;-55
2022/06/21 04:42:03;;;;;;;12.52;7.95;;;;;;;;;;2067581;28;20178;-54
2022/06/21 04:43:09;;;;;;;12.00;7.70;;;;;;;;;;2067458;28;20264;-53
2022/06/21 04:44:13;;;;;;;10.48;7.07;;;;;;;;;;2067540;28;20166;-54
2022/06/21 04:45:27;;;;;;;12.50;8.05;;;;;;;;;;2063690;28;20572;-56
2022/06/21 04:46:33;;;;;;;17.02;7.13;;;;;;;;;;2067582;28;20204;-52
2022/06/21 04:47:36;;;;;;;17.10;7.18;;;;;;;;;;2068643;28;20169;-55
2022/06/21 04:48:40;;;;;;;8.18;6.95;;;;;;;;;;2067371;28;20178;-55
2022/06/21 04:49:43;;;;;;;14.45;6.95;;;;;;;;;;2068595;28;20188;-56
2022/06/21 04:50:48;;;;;;;13.88;7.32;;;;;;;;;;2062863;28;20254;-58
2022/06/21 04:51:53;;;;;;;10.85;7.15;;;;;;;;;;2058973;28;20205;-55
2022/06/21 04:52:57;;;;;;;9.93;7.20;;;;;;;;;;2075706;28;20177;-52
2022/06/21 04:54:12;;;;;;;9.55;7.07;;;;;;;;;;2075391;28;20184;-55
2022/06/21 04:55:14;;;;;;;13.55;7.75;;;;;;;;;;2068304;28;20248;-50
2022/06/21 04:56:38;;;;;;;7.82;7.13;;;;;;;;;;2068053;28;20240;-54
2022/06/21 04:57:38;;;;;;;9.48;6.85;;;;;;;;;;2066725;28;20184;-54
2022/06/21 04:58:38;;;;;;;9.90;6.95;;;;;;;;;;2067010;28;20276;-50
2022/06/21 04:59:39;;;;;;;10.00;6.47;;;;;;;;;;2063137;28;20229;-53
2022/06/21 05:00:39;;;;;;;9.73;7.00;;;;;;;;;;2059134;28;20166;-51
2022/06/21 05:01:39;;;;;;;9.48;7.70;;;;;;;;;;2058601;28;20552;-54
2022/06/21 05:02:44;;;;;;;12.30;7.90;;;;;;;;;;2057859;28;20181;-53
2022/06/21 05:03:45;;;;;;;12.93;8.00;;;;;;;;;;2057538;28;20635;-55
2022/06/21 05:04:46;;;;;;;13.88;8.15;;;;;;;;;;2061686;28;20175;-53
2022/06/21 05:05:47;;;;;;;8.70;7.57;;;;;;;;;;2067059;28;20253;-56
2022/06/21 05:06:48;;;;;;;12.55;7.72;;;;;;;;;;2066535;28;20273;-52
2022/06/21 05:08:04;;;;;;;11.38;7.30;;;;;;;;;;2062546;28;20166;-55
2022/06/21 05:09:04;;;;;;;16.38;8.07;;;;;;;;;;2059862;28;20257;-56
2022/06/21 05:10:05;;;;;;;15.27;8.18;;;;;;;;;;2067227;28;20170;-51
2022/06/21 05:11:05;;;;;;;12.00;7.97;;;;;;;;;;2058080;28;20209;-53
2022/06/21 05:12:11;;;;;;;11.75;7.65;;;;;;;;;;2066659;28;20225;-55
2022/06/21 05:13:17;;;;;;;14.18;7.85;;;;;;;;;;2067492;28;20165;-53
2022/06/21 05:14:21;;;;;;;12.52;7.70;;;;;;;;;;2057762;28;20186;-53
2022/06/21 05:15:23;;;;;;;7.53;6.75;;;;;;;;;;2055920;28;20209;-54
2022/06/21 05:16:30;;;;;;;15.18;7.35;;;;;;;;;;2074275;28;20188;-60
2022/06/21 05:17:33;;;;;;;9.93;7.40;;;;;;;;;;2076738;28;20161;-50
2022/06/21 05:18:35;;;;;;;9.75;7.13;;;;;;;;;;2076118;28;20668;-56
2022/06/21 05:19:38;;;;;;;9.02;6.70;;;;;;;;;;2076659;28;20176;-54
2022/06/21 05:20:43;;;;;;;12.90;7.20;;;;;;;;;;2075927;28;20626;-54
2022/06/21 05:21:55;;;;;;;8.10;6.68;;;;;;;;;;2075750;28;20719;-55
2022/06/21 05:22:58;;;;;;;11.38;7.15;;;;;;;;;;2076047;28;20213;-50
2022/06/21 05:23:59;;;;;;;11.32;6.68;;;;;;;;;;2076411;28;20752;-52
2022/06/21 05:25:00;;;;;;;14.77;7.13;;;;;;;;;;2076739;28;20282;-55
2022/06/21 05:26:01;;;;;;;11.13;7.50;;;;;;;;;;2069531;28;20267;-52
2022/06/21 05:27:02;;;;;;;9.65;6.75;;;;;;;;;;2068676;28;20205;-51
2022/06/21 05:28:02;;;;;;;10.57;6.95;;;;;;;;;;2068756;28;20189;-54
2022/06/21 05:29:12;;;;;;;12.65;6.70;;;;;;;;;;2068787;28;20242;-55
2022/06/21 05:30:19;;;;;;;13.25;6.68;;;;;;;;;;2068601;28;20162;-53
2022/06/21 05:31:28;;;;;;;11.02;6.97;;;;;;;;;;2067332;28;20168;-54
2022/06/21 05:32:30;;;;;;;7.07;5.68;;;;;;;;;;2064592;28;20170;-54
2022/06/21 05:33:40;;;;;;;15.05;7.10;;;;;;;;;;2068365;28;20169;-53
2022/06/21 05:34:44;;;;;;;10.70;6.90;;;;;;;;;;2073369;28;20177;-54
2022/06/21 05:35:45;;;;;;;11.65;7.85;;;;;;;;;;2067231;28;20205;-53
2022/06/21 05:37:08;;;;;;;12.98;7.97;;;;;;;;;;2063677;28;20346;-50
2022/06/21 05:38:23;;;;;;;12.50;7.22;;;;;;;;;;2065564;28;20200;-54
2022/06/21 05:39:26;;;;;;;10.77;7.35;;;;;;;;;;2066246;28;20646;-54
2022/06/21 05:40:46;;;;;;;10.55;7.45;;;;;;;;;;2068421;28;20240;-58
2022/06/21 05:41:48;;;;;;;8.70;6.82;;;;;;;;;;2061717;28;20174;-56
2022/06/21 05:42:48;;;;;;;13.48;7.10;;;;;;;;;;2067465;28;20260;-51
2022/06/21 05:43:50;;;;;;;10.23;7.00;;;;;;;;;;2067306;28;20178;-55
2022/06/21 05:44:56;;;;;;;11.95;7.03;;;;;;;;;;2066016;28;20589;-55
2022/06/21 05:45:59;;;;;;;11.65;6.80;;;;;;;;;;2062761;28;20192;-50
2022/06/21 05:47:28;;;;;;;10.02;6.65;;;;;;;;;;2067350;28;20176;-58
2022/06/21 05:48:31;;;;;;;11.30;6.95;;;;;;;;;;2059205;28;20681;-55
2022/06/21 05:49:33;;;;;;;12.35;6.90;;;;;;;;;;2068096;28;20176;-58
2022/06/21 05:50:34;;;;;;;9.40;6.25;;;;;;;;;;2068083;28;20196;-60
2022/06/21 05:51:35;;;;;;;10.90;6.65;;;;;;;;;;2073136;28;20231;-52
2022/06/21 05:52:37;;;;;;;15.95;6.95;;;;;;;;;;2075526;28;20169;-57
2022/06/21 05:53:39;;;;;;;13.57;7.97;;;;;;;;;;2071673;28;20184;-55
2022/06/21 05:54:48;;;;;;;9.98;6.75;;;;;;;;;;2067041;28;20249;-54
2022/06/21 05:55:49;;;;;;;11.45;7.68;;;;;;;;;;2067457;28;20234;-57
2022/06/21 05:56:50;;;;;;;16.20;7.15;;;;;;;;;;2058711;28;20185;-56
2022/06/21 05:57:59;;;;;;;9.90;6.60;;;;;;;;;;2050121;28;20187;-54
2022/06/21 05:59:04;;;;;;;18.90;6.93;;;;;;;;;;2065197;28;20201;-57
2022/06/21 06:00:05;;;;;;;14.13;6.93;;;;;;;;;;2067704;28;20186;-56
2022/06/21 06:01:08;;;;;;;14.93;6.97;;;;;;;;;;2067567;28;20880;-56
2022/06/21 06:02:17;;;;;;;11.00;6.40;;;;;;;;;;2066807;28;20180;-57
2022/06/21 06:03:36;;;;;;;9.75;6.68;;;;;;;;;;2066684;28;20208;-60
2022/06/21 06:04:36;;;;;;;10.40;6.15;;;;;;;;;;2066199;28;20166;-58
2022/06/21 06:05:37;;;;;;;14.73;6.80;;;;;;;;;;2066102;28;20197;-56
2022/06/21 06:06:39;;;;;;;11.15;6.07;;;;;;;;;;2059379;28;20206;-54
2022/06/21 06:07:46;;;;;;;10.98;6.47;;;;;;;;;;2066320;28;20177;-56
2022/06/21 06:08:48;;;;;;;11.85;6.20;;;;;;;;;;2067093;28;20252;-54
2022/06/21 06:09:49;;;;;;;11.13;6.18;;;;;;;;;;2066458;28;20570;-56
2022/06/21 06:10:50;;;;;;;12.57;6.35;;;;;;;;;;2063400;28;20186;-57
2022/06/21 06:12:00;;;;;;;10.55;5.95;;;;;;;;;;2063620;28;20704;-57
2022/06/21 06:13:04;;;;;;;8.98;5.90;;;;;;;;;;2067695;28;20158;-59
2022/06/21 06:14:04;;;;;;;12.32;5.43;;;;;;;;;;2067204;28;20277;-58
2022/06/21 06:15:11;;;;;;;9.77;6.28;;;;;;;;;;2067522;28;20540;-57
2022/06/21 06:16:17;;;;;;;10.70;6.85;;;;;;;;;;2067360;28;20225;-57
2022/06/21 06:17:17;;;;;;;9.88;5.60;;;;;;;;;;2066396;28;20601;-55
2022/06/21 06:18:25;;;;;;;18.63;13.02;;;;;;;;;;2058820;28;20273;-59
2022/06/21 06:19:28;;;;;;;15.10;7.47;;;;;;;;;;2060021;28;20526;-56
2022/06/21 06:20:36;;;;;;;11.07;9.18;;;;;;;;;;2060050;28;20170;-62
2022/06/21 06:21:45;;;;;;;7.60;4.30;;;;;;;;;;2059195;28;20467;-58
2022/06/21 06:22:49;;;;;;;6.40;4.30;;;;;;;;;;2063695;28;20166;-58
2022/06/21 06:23:54;;;;;;;7.07;4.07;;;;;;;;;;2066094;28;20177;-60
2022/06/21 06:25:01;;;;;;;10.13;4.72;;;;;;;;;;2061870;28;20170;-62
2022/06/21 06:26:04;;;;;;;8.35;3.97;;;;;;;;;;2062872;28;21449;-59
2022/06/21 06:27:08;;;;;;;12.77;5.10;;;;;;;;;;2062489;28;20174;-56
2022/06/21 06:28:21;;;;;;;8.07;3.85;;;;;;;;;;2061998;28;20174;-57